createdAt,value
2023-03-10T00:00:14.221Z,1.04
2023-03-10T00:01:14.320Z,1.04
2023-03-10T00:02:14.426Z,1.04
2023-03-10T00:03:14.527Z,1.04
2023-03-10T00:04:14.673Z,1.04
2023-03-10T00:05:14.828Z,1.04
2023-03-10T00:06:14.940Z,1.04
2023-03-10T00:07:15.080Z,1.04
2023-03-10T00:08:15.179Z,1.04
2023-03-10T00:09:15.281Z,1.04
2023-03-10T00:10:15.391Z,1.04
2023-03-10T00:11:15.537Z,1.04
2023-03-10T00:12:15.690Z,1.04
2023-03-10T00:13:15.838Z,1.04
2023-03-10T00:14:15.989Z,1.04
2023-03-10T00:15:16.141Z,1.04
2023-03-10T00:16:16.413Z,1.04
2023-03-10T00:17:16.393Z,1.04
2023-03-10T00:18:16.494Z,1.04
2023-03-10T00:19:16.653Z,1.04
2023-03-10T00:20:16.751Z,1.04
2023-03-10T00:21:16.905Z,1.04
2023-03-10T00:22:17.059Z,1.04
2023-03-10T00:23:17.202Z,1.04
2023-03-10T00:24:17.356Z,1.04
2023-03-10T00:25:17.465Z,1.04
2023-03-10T00:26:17.605Z,1.04
2023-03-10T00:27:17.760Z,1.04
2023-03-10T00:28:17.860Z,1.04
2023-03-10T00:29:18.014Z,1.04
2023-03-10T00:30:18.123Z,1.04
2023-03-10T00:31:18.380Z,1.04
2023-03-10T00:32:18.427Z,1.04
2023-03-10T00:33:18.472Z,1.04
2023-03-10T00:34:18.618Z,1.04
2023-03-10T00:35:18.771Z,1.04
2023-03-10T00:36:18.934Z,1.04
2023-03-10T00:37:19.075Z,1.04
2023-03-10T00:38:19.186Z,1.04
2023-03-10T00:39:19.282Z,1.04
2023-03-10T00:40:19.398Z,1.04
2023-03-10T00:41:19.532Z,1.04
2023-03-10T00:42:19.672Z,1.04
2023-03-10T00:43:19.789Z,1.04
2023-03-10T00:44:19.892Z,1.04
2023-03-10T00:45:20.042Z,1.04
2023-03-10T00:46:20.241Z,1.04
2023-03-10T00:47:20.241Z,1.04
2023-03-10T00:48:20.398Z,1.04
2023-03-10T00:49:20.515Z,1.04
2023-03-10T00:50:20.648Z,1.04
2023-03-10T00:51:20.821Z,1.04
2023-03-10T00:52:20.901Z,1.04
2023-03-10T00:53:21.049Z,1.04
2023-03-10T00:54:21.158Z,1.04
2023-03-10T00:55:21.304Z,1.04
2023-03-10T00:56:21.411Z,1.04
2023-03-10T00:57:21.562Z,1.04
2023-03-10T00:58:21.659Z,1.04
2023-03-10T00:59:21.766Z,1.04
2023-03-10T01:00:21.872Z,1.04
2023-03-10T01:01:22.064Z,1.04
2023-03-10T01:02:22.151Z,1.04
2023-03-10T01:03:22.280Z,1.04
2023-03-10T01:04:22.462Z,1.04
2023-03-10T01:05:22.571Z,1.04
2023-03-10T01:06:22.722Z,1.04
2023-03-10T01:07:22.832Z,1.04
2023-03-10T01:08:22.978Z,1.04
2023-03-10T01:09:23.124Z,1.04
2023-03-10T01:10:23.274Z,1.04
2023-03-10T01:11:23.391Z,1.04
2023-03-10T01:12:23.526Z,1.04
2023-03-10T01:13:23.627Z,1.04
2023-03-10T01:14:23.783Z,1.04
2023-03-10T01:15:23.939Z,1.04
2023-03-10T01:16:24.145Z,1.04
2023-03-10T01:17:24.187Z,1.04
2023-03-10T01:18:24.336Z,1.04
2023-03-10T01:19:24.444Z,1.04
2023-03-10T01:20:24.590Z,1.04
2023-03-10T01:21:24.698Z,1.04
2023-03-10T01:22:24.856Z,1.04
2023-03-10T01:23:24.943Z,1.04
2023-03-10T01:24:25.112Z,1.04
2023-03-10T01:25:25.275Z,1.04
2023-03-10T01:26:25.394Z,1.04
2023-03-10T01:27:25.499Z,1.04
2023-03-10T01:28:25.602Z,1.04
2023-03-10T01:29:25.700Z,1.04
2023-03-10T01:30:25.852Z,1.04
2023-03-10T01:31:26.009Z,1.04
2023-03-10T01:32:26.223Z,1.04
2023-03-10T01:33:26.209Z,1.04
2023-03-10T01:34:26.312Z,1.04
2023-03-10T01:35:26.412Z,1.04
2023-03-10T01:36:26.582Z,1.04
2023-03-10T01:37:26.714Z,1.04
2023-03-10T01:38:26.825Z,1.04
2023-03-10T01:39:26.965Z,1.04
2023-03-10T01:40:27.114Z,1.04
2023-03-10T01:41:27.263Z,1.04
2023-03-10T01:42:27.374Z,1.04
2023-03-10T01:43:27.519Z,1.04
2023-03-10T01:44:27.669Z,1.04
2023-03-10T01:45:27.826Z,1.04
2023-03-10T01:46:27.968Z,1.04
2023-03-10T01:47:28.073Z,1.04
2023-03-10T01:48:28.173Z,1.04
2023-03-10T01:49:28.336Z,1.04
2023-03-10T01:50:28.480Z,1.04
2023-03-10T01:51:28.580Z,1.04
2023-03-10T01:52:28.736Z,1.04
2023-03-10T01:53:28.837Z,1.04
2023-03-10T01:54:28.984Z,1.04
2023-03-10T01:55:29.094Z,1.04
2023-03-10T01:56:29.240Z,1.04
2023-03-10T01:57:29.400Z,1.04
2023-03-10T01:58:29.491Z,1.04
2023-03-10T01:59:29.593Z,1.04
2023-03-10T02:00:29.786Z,1.04
2023-03-10T02:01:29.815Z,1.04
2023-03-10T02:02:30.003Z,1.04
2023-03-10T02:03:29.997Z,1.04
2023-03-10T02:04:30.113Z,1.04
2023-03-10T02:05:30.257Z,1.04
2023-03-10T02:06:30.407Z,1.04
2023-03-10T02:07:30.553Z,1.04
2023-03-10T02:08:30.707Z,1.04
2023-03-10T02:09:30.807Z,1.04
2023-03-10T02:10:30.909Z,1.04
2023-03-10T02:11:31.007Z,1.04
2023-03-10T02:12:31.160Z,1.04
2023-03-10T02:13:31.262Z,1.04
2023-03-10T02:14:31.419Z,1.04
2023-03-10T02:15:31.570Z,1.04
2023-03-10T02:16:31.797Z,1.04
2023-03-10T02:17:31.862Z,1.04
2023-03-10T02:18:31.924Z,1.04
2023-03-10T02:19:32.023Z,1.04
2023-03-10T02:20:32.175Z,1.04
2023-03-10T02:21:32.323Z,1.04
2023-03-10T02:22:32.430Z,1.04
2023-03-10T02:23:32.536Z,1.04
2023-03-10T02:24:32.683Z,1.04
2023-03-10T02:25:32.836Z,1.04
2023-03-10T02:26:32.985Z,1.04
2023-03-10T02:27:33.135Z,1.04
2023-03-10T02:28:33.248Z,1.04
2023-03-10T02:29:33.406Z,1.04
2023-03-10T02:30:33.542Z,1.04
2023-03-10T02:31:33.662Z,1.04
2023-03-10T02:32:33.865Z,1.04
2023-03-10T02:33:33.996Z,1.04
2023-03-10T02:34:34.128Z,1.04
2023-03-10T02:35:34.333Z,1.04
2023-03-10T02:36:34.446Z,1.04
2023-03-10T02:37:34.557Z,1.04
2023-03-10T02:38:34.715Z,1.04
2023-03-10T02:39:34.858Z,1.04
2023-03-10T02:40:34.960Z,1.04
2023-03-10T02:41:35.122Z,1.04
2023-03-10T02:42:35.298Z,1.04
2023-03-10T02:43:35.408Z,1.04
2023-03-10T02:44:35.516Z,1.04
2023-03-10T02:45:35.758Z,1.04
2023-03-10T02:46:35.771Z,1.04
2023-03-10T02:47:35.920Z,1.04
2023-03-10T02:48:36.067Z,1.04
2023-03-10T02:49:36.170Z,1.04
2023-03-10T02:50:36.271Z,1.04
2023-03-10T02:51:36.425Z,1.04
2023-03-10T02:52:36.574Z,1.04
2023-03-10T02:53:36.725Z,1.04
2023-03-10T02:54:36.821Z,1.04
2023-03-10T02:55:36.972Z,1.04
2023-03-10T02:56:37.078Z,1.04
2023-03-10T02:57:37.177Z,1.04
2023-03-10T02:58:37.279Z,1.04
2023-03-10T02:59:37.380Z,1.04
2023-03-10T03:00:37.530Z,1.04
2023-03-10T03:01:37.650Z,1.04
2023-03-10T03:02:37.785Z,1.04
2023-03-10T03:03:37.989Z,1.04
2023-03-10T03:04:37.998Z,1.04
2023-03-10T03:05:38.141Z,1.04
2023-03-10T03:06:38.238Z,1.04
2023-03-10T03:07:38.390Z,1.04
2023-03-10T03:08:38.537Z,1.04
2023-03-10T03:09:38.645Z,1.04
2023-03-10T03:10:38.810Z,1.04
2023-03-10T03:11:38.948Z,1.04
2023-03-10T03:12:39.098Z,1.04
2023-03-10T03:13:39.200Z,1.04
2023-03-10T03:14:39.312Z,1.04
2023-03-10T03:15:39.459Z,1.04
2023-03-10T03:16:39.654Z,1.04
2023-03-10T03:17:39.753Z,1.04
2023-03-10T03:18:39.872Z,1.04
2023-03-10T03:19:40.022Z,1.04
2023-03-10T03:20:40.175Z,1.04
2023-03-10T03:21:40.307Z,1.04
2023-03-10T03:22:40.460Z,1.04
2023-03-10T03:23:40.561Z,1.04
2023-03-10T03:24:40.717Z,1.04
2023-03-10T03:25:40.865Z,1.04
2023-03-10T03:26:41.023Z,1.04
2023-03-10T03:27:41.168Z,1.04
2023-03-10T03:28:41.272Z,1.04
2023-03-10T03:29:41.418Z,1.04
2023-03-10T03:30:41.578Z,1.04
2023-03-10T03:31:41.727Z,1.04
2023-03-10T03:32:41.858Z,1.04
2023-03-10T03:33:41.874Z,1.04
2023-03-10T03:34:41.975Z,1.04
2023-03-10T03:35:42.145Z,1.04
2023-03-10T03:36:42.226Z,1.04
2023-03-10T03:37:42.330Z,1.04
2023-03-10T03:38:42.432Z,1.04
2023-03-10T03:39:42.600Z,1.04
2023-03-10T03:40:42.641Z,1.04
2023-03-10T03:41:42.740Z,1.04
2023-03-10T03:42:42.839Z,1.04
2023-03-10T03:43:42.989Z,1.04
2023-03-10T03:44:43.090Z,1.04
2023-03-10T03:45:43.230Z,1.04
2023-03-10T03:46:43.300Z,1.04
2023-03-10T03:47:43.395Z,1.04
2023-03-10T03:48:43.503Z,1.04
2023-03-10T03:49:43.655Z,1.04
2023-03-10T03:50:43.806Z,1.04
2023-03-10T03:51:43.955Z,1.04
2023-03-10T03:52:44.062Z,1.04
2023-03-10T03:53:44.201Z,1.04
2023-03-10T03:54:44.308Z,1.04
2023-03-10T03:55:44.458Z,1.04
2023-03-10T03:56:44.608Z,1.04
2023-03-10T03:57:44.719Z,1.04
2023-03-10T03:58:44.858Z,1.04
2023-03-10T03:59:45.025Z,1.04
2023-03-10T04:00:45.164Z,1.04
2023-03-10T04:01:45.316Z,1.04
2023-03-10T04:02:45.555Z,1.04
2023-03-10T04:03:45.656Z,1.04
2023-03-10T04:04:45.715Z,1.04
2023-03-10T04:05:45.828Z,1.04
2023-03-10T04:06:45.927Z,1.04
2023-03-10T04:07:46.024Z,1.04
2023-03-10T04:08:46.185Z,1.04
2023-03-10T04:09:46.278Z,1.04
2023-03-10T04:10:46.429Z,1.04
2023-03-10T04:11:46.586Z,1.04
2023-03-10T04:12:46.731Z,1.04
2023-03-10T04:13:46.889Z,1.04
2023-03-10T04:14:47.036Z,1.04
2023-03-10T04:15:47.202Z,1.04
2023-03-10T04:16:47.337Z,1.04
2023-03-10T04:17:47.452Z,1.04
2023-03-10T04:18:47.591Z,1.04
2023-03-10T04:19:54.265Z,1.04
2023-03-10T04:20:47.842Z,1.04
2023-03-10T04:21:47.948Z,1.04
2023-03-10T04:22:48.094Z,1.04
2023-03-10T04:23:48.197Z,1.04
2023-03-10T04:24:48.299Z,1.04
2023-03-10T04:25:48.450Z,1.04
2023-03-10T04:26:48.566Z,1.04
2023-03-10T04:27:48.653Z,1.04
2023-03-10T04:28:48.768Z,1.04
2023-03-10T04:29:48.870Z,1.04
2023-03-10T04:30:49.055Z,1.04
2023-03-10T04:32:02.790Z,1.04
2023-03-10T04:32:49.515Z,1.04
2023-03-10T04:33:49.367Z,1.04
2023-03-10T04:34:49.465Z,1.04
2023-03-10T04:35:50.218Z,1.04
2023-03-10T04:36:49.714Z,1.04
2023-03-10T04:37:49.824Z,1.04
2023-03-10T04:38:49.936Z,1.04
2023-03-10T04:39:50.070Z,1.04
2023-03-10T04:40:50.171Z,1.04
2023-03-10T04:41:50.327Z,1.04
2023-03-10T04:42:50.430Z,1.04
2023-03-10T04:43:50.578Z,1.04
2023-03-10T04:44:50.730Z,1.04
2023-03-10T04:45:50.909Z,1.04
2023-03-10T04:46:50.985Z,1.04
2023-03-10T04:47:51.089Z,1.04
2023-03-10T04:48:51.239Z,1.04
2023-03-10T04:49:51.389Z,1.04
2023-03-10T04:50:51.544Z,1.04
2023-03-10T04:51:51.696Z,1.04
2023-03-10T04:52:51.841Z,1.04
2023-03-10T04:53:51.978Z,1.04
2023-03-10T04:54:52.046Z,1.04
2023-03-10T04:55:52.195Z,1.04
2023-03-10T04:56:52.360Z,1.04
2023-03-10T04:57:52.460Z,1.04
2023-03-10T04:58:52.610Z,1.04
2023-03-10T04:59:52.779Z,1.04
2023-03-10T05:01:02.624Z,1.04
2023-03-10T05:01:53.140Z,2
2023-03-10T05:02:53.156Z,2
2023-03-10T05:03:53.319Z,2
2023-03-10T05:04:53.463Z,2
2023-03-10T05:05:53.615Z,2
2023-03-10T05:06:53.722Z,3.04
2023-03-10T05:07:53.861Z,3.04
2023-03-10T05:08:53.969Z,3.04
2023-03-10T05:09:54.062Z,4
2023-03-10T05:10:54.168Z,4
2023-03-10T05:11:54.266Z,5.04
2023-03-10T05:12:54.384Z,5.04
2023-03-10T05:13:54.532Z,6
2023-03-10T05:14:54.621Z,6
2023-03-10T05:15:54.828Z,8
2023-03-10T05:16:54.878Z,9.04
2023-03-10T05:17:55.062Z,10
2023-03-10T05:18:55.126Z,12
2023-03-10T05:19:55.275Z,15.04
2023-03-10T05:20:55.437Z,19.04
2023-03-10T05:21:55.577Z,22
2023-03-10T05:22:55.735Z,26
2023-03-10T05:23:55.881Z,29.04
2023-03-10T05:24:55.983Z,33.04
2023-03-10T05:25:56.135Z,36
2023-03-10T05:26:56.288Z,43.04
2023-03-10T05:27:56.434Z,49.04
2023-03-10T05:28:56.536Z,51.04
2023-03-10T05:29:56.635Z,52
2023-03-10T05:30:56.868Z,55.04
2023-03-10T05:31:56.896Z,61.04
2023-03-10T05:32:57.096Z,93.04
2023-03-10T05:33:57.143Z,97.04
2023-03-10T05:34:57.258Z,101.04
2023-03-10T05:35:57.449Z,106
2023-03-10T05:36:57.548Z,120
2023-03-10T05:37:57.655Z,142
2023-03-10T05:38:57.754Z,161.04
2023-03-10T05:39:57.855Z,164
2023-03-10T05:40:57.971Z,181.12
2023-03-10T05:41:58.110Z,180
2023-03-10T05:42:58.212Z,201.12
2023-03-10T05:43:58.364Z,233.12
2023-03-10T05:44:58.461Z,228
2023-03-10T05:45:58.605Z,270.08
2023-03-10T05:46:58.814Z,361.28
2023-03-10T05:47:58.916Z,368
2023-03-10T05:48:59.020Z,408
2023-03-10T05:49:59.119Z,433.28
2023-03-10T05:50:59.223Z,484.16
2023-03-10T05:51:59.371Z,555.2
2023-03-10T05:52:59.476Z,622.08
2023-03-10T05:53:59.631Z,612.16
2023-03-10T05:54:59.783Z,580.16
2023-03-10T05:55:59.929Z,644.16
2023-03-10T05:57:00.040Z,688
2023-03-10T05:58:00.147Z,720
2023-03-10T05:59:00.244Z,745.6
2023-03-10T06:00:00.392Z,775.04
2023-03-10T06:01:00.565Z,808.32
2023-03-10T06:02:00.756Z,840.32
2023-03-10T06:03:00.948Z,856.32
2023-03-10T06:04:01.060Z,872.32
2023-03-10T06:05:01.092Z,853.12
2023-03-10T06:06:01.246Z,794.24
2023-03-10T06:07:01.736Z,759.04
2023-03-10T06:08:01.508Z,759.04
2023-03-10T06:09:01.609Z,845.44
2023-03-10T06:10:01.747Z,917.12
2023-03-10T06:11:01.849Z,949.12
2023-03-10T06:12:01.956Z,974.08
2023-03-10T06:13:02.101Z,993.28
2023-03-10T06:14:02.204Z,1036.16
2023-03-10T06:15:02.356Z,1071.36
2023-03-10T06:16:02.552Z,1097.6
2023-03-10T06:17:02.660Z,1130.24
2023-03-10T06:18:02.812Z,1157.12
2023-03-10T06:19:02.967Z,1218.56
2023-03-10T06:20:03.125Z,1241.6
2023-03-10T06:21:03.268Z,1229.44
2023-03-10T06:22:03.424Z,1169.28
2023-03-10T06:23:03.521Z,1095.04
2023-03-10T06:24:03.676Z,1041.28
2023-03-10T06:25:03.824Z,1032.32
2023-03-10T06:26:03.981Z,1118.08
2023-03-10T06:27:04.078Z,1185.28
2023-03-10T06:28:04.174Z,1268.48
2023-03-10T06:29:04.330Z,1454.08
2023-03-10T06:30:04.509Z,1585.92
2023-03-10T06:31:04.635Z,1692.16
2023-03-10T06:32:04.791Z,1839.36
2023-03-10T06:33:04.834Z,1940.48
2023-03-10T06:34:04.989Z,2003.2
2023-03-10T06:35:05.138Z,2069.76
2023-03-10T06:36:05.358Z,2128.64
2023-03-10T06:37:05.439Z,2693.12
2023-03-10T06:38:05.597Z,2892.8
2023-03-10T06:39:05.746Z,3028.48
2023-03-10T06:40:05.975Z,3064.32
2023-03-10T06:41:06.043Z,3069.44
2023-03-10T06:42:06.193Z,3105.28
2023-03-10T06:43:06.303Z,3228.16
2023-03-10T06:44:06.448Z,3392
2023-03-10T06:45:06.555Z,3637.76
2023-03-10T06:46:06.772Z,3898.88
2023-03-10T06:47:06.806Z,4298.24
2023-03-10T06:48:06.918Z,4584.96
2023-03-10T06:49:07.079Z,4648.96
2023-03-10T06:50:07.162Z,4528.64
2023-03-10T06:51:07.325Z,4538.88
2023-03-10T06:52:07.423Z,4751.36
2023-03-10T06:53:07.563Z,4462.08
2023-03-10T06:54:07.717Z,4631.04
2023-03-10T06:55:07.884Z,4802.56
2023-03-10T06:56:08.028Z,5004.8
2023-03-10T06:57:08.134Z,5171.2
2023-03-10T06:58:08.282Z,5207.04
2023-03-10T06:59:08.398Z,4915.2
2023-03-10T07:00:08.539Z,4490.24
2023-03-10T07:01:08.666Z,4167.68
2023-03-10T07:02:08.728Z,3476.48
2023-03-10T07:03:08.881Z,3333.12
2023-03-10T07:04:08.978Z,3238.4
2023-03-10T07:05:09.189Z,3640.32
2023-03-10T07:06:09.187Z,3486.72
2023-03-10T07:07:09.330Z,2900.48
2023-03-10T07:08:09.448Z,2579.2
2023-03-10T07:09:09.588Z,2670.08
2023-03-10T07:10:09.737Z,2529.28
2023-03-10T07:11:09.834Z,2405.12
2023-03-10T07:12:09.992Z,2238.72
2023-03-10T07:13:10.141Z,2214.4
2023-03-10T07:14:10.310Z,2252.8
2023-03-10T07:15:10.450Z,2915.84
2023-03-10T07:16:10.596Z,4520.96
2023-03-10T07:17:10.780Z,4902.4
2023-03-10T07:18:10.895Z,5032.96
2023-03-10T07:19:11.046Z,5498.88
2023-03-10T07:20:11.204Z,5632
2023-03-10T07:21:11.351Z,5770.24
2023-03-10T07:22:11.536Z,5888
2023-03-10T07:23:11.651Z,6220.8
2023-03-10T07:24:11.756Z,6845.44
2023-03-10T07:25:11.859Z,7439.36
2023-03-10T07:26:12.013Z,7936
2023-03-10T07:27:12.107Z,7951.36
2023-03-10T07:28:12.260Z,8381.44
2023-03-10T07:29:12.360Z,8458.24
2023-03-10T07:30:12.517Z,8197.12
2023-03-10T07:31:12.671Z,7674.88
2023-03-10T07:32:12.783Z,7280.64
2023-03-10T07:33:12.868Z,7142.4
2023-03-10T07:34:12.985Z,7142.4
2023-03-10T07:35:13.117Z,6778.88
2023-03-10T07:36:13.229Z,6517.76
2023-03-10T07:37:13.387Z,6579.2
2023-03-10T07:38:13.525Z,6522.88
2023-03-10T07:39:13.682Z,6307.84
2023-03-10T07:40:13.824Z,6650.88
2023-03-10T07:41:13.976Z,5985.28
2023-03-10T07:42:14.128Z,5591.04
2023-03-10T07:43:14.232Z,6031.36
2023-03-10T07:44:14.332Z,5964.8
2023-03-10T07:45:14.485Z,6026.24
2023-03-10T07:46:14.617Z,5882.88
2023-03-10T07:47:14.690Z,5862.4
2023-03-10T07:48:14.838Z,6062.08
2023-03-10T07:49:14.989Z,5309.44
2023-03-10T07:50:15.105Z,5447.68
2023-03-10T07:51:15.196Z,4989.44
2023-03-10T07:52:15.377Z,5135.36
2023-03-10T07:53:15.503Z,5196.8
2023-03-10T07:54:15.655Z,5652.48
2023-03-10T07:55:15.750Z,6051.84
2023-03-10T07:56:15.902Z,7080.96
2023-03-10T07:57:16.002Z,8483.84
2023-03-10T07:58:16.154Z,9062.399
2023-03-10T07:59:16.262Z,9077.76
2023-03-10T08:00:16.359Z,9333.76
2023-03-10T08:01:16.518Z,9651.2
2023-03-10T08:02:16.638Z,9328.64
2023-03-10T08:03:16.724Z,9728
2023-03-10T08:04:17.021Z,11192.319
2023-03-10T08:05:17.027Z,10803.2
2023-03-10T08:06:17.074Z,10864.64
2023-03-10T08:07:17.213Z,10496
2023-03-10T08:08:17.372Z,10536.96
2023-03-10T08:09:17.520Z,10762.24
2023-03-10T08:10:17.627Z,11489.279
2023-03-10T08:11:17.736Z,11151.359
2023-03-10T08:12:17.874Z,11560.96
2023-03-10T08:13:18.000Z,12656.64
2023-03-10T08:14:19.912Z,12083.2
2023-03-10T08:15:18.278Z,10670.08
2023-03-10T08:16:18.432Z,11950.08
2023-03-10T08:17:18.488Z,12595.2
2023-03-10T08:18:18.583Z,14592
2023-03-10T08:19:18.738Z,15994.88
2023-03-10T08:20:18.836Z,14612.479
2023-03-10T08:21:18.985Z,12195.84
2023-03-10T08:22:20.729Z,10629.12
2023-03-10T08:23:19.243Z,9625.6
2023-03-10T08:24:19.338Z,9292.8
2023-03-10T08:25:19.440Z,10347.52
2023-03-10T08:26:19.593Z,10117.12
2023-03-10T08:27:19.705Z,9328.64
2023-03-10T08:28:19.844Z,8591.359
2023-03-10T08:29:19.996Z,8514.56
2023-03-10T08:30:20.174Z,8693.76
2023-03-10T08:31:20.409Z,8284.16
2023-03-10T08:32:20.427Z,8529.92
2023-03-10T08:33:20.552Z,8366.08
2023-03-10T08:34:20.708Z,9349.12
2023-03-10T08:35:20.866Z,9733.12
2023-03-10T08:36:21.094Z,8181.76
2023-03-10T08:37:21.115Z,8197.12
2023-03-10T08:38:21.256Z,8028.16
2023-03-10T08:39:21.360Z,7848.96
2023-03-10T08:40:21.511Z,8376.32
2023-03-10T08:41:21.615Z,9251.84
2023-03-10T08:42:21.766Z,8570.88
2023-03-10T08:43:21.920Z,8355.84
2023-03-10T08:44:22.022Z,6999.04
2023-03-10T08:45:22.167Z,6272
2023-03-10T08:46:22.349Z,6743.04
2023-03-10T08:47:22.430Z,8601.6
2023-03-10T08:48:22.613Z,8811.52
2023-03-10T08:49:22.725Z,6487.04
2023-03-10T08:50:22.885Z,6005.76
2023-03-10T08:51:23.029Z,5235.2
2023-03-10T08:52:23.129Z,6440.96
2023-03-10T08:53:23.359Z,8791.04
2023-03-10T08:54:23.494Z,14233.6
2023-03-10T08:55:23.637Z,14325.76
2023-03-10T08:56:23.792Z,15687.68
2023-03-10T08:57:23.938Z,18452.48
2023-03-10T08:58:24.042Z,25845.76
2023-03-10T08:59:24.146Z,27627.52
2023-03-10T09:00:24.294Z,26357.76
2023-03-10T09:01:24.460Z,27873.28
2023-03-10T09:02:24.632Z,23859.2
2023-03-10T09:03:24.739Z,25067.52
2023-03-10T09:04:24.856Z,19271.68
2023-03-10T09:05:25.011Z,20183.04
2023-03-10T09:06:25.154Z,19486.72
2023-03-10T09:07:25.255Z,19701.76
2023-03-10T09:08:27.498Z,16558.08
2023-03-10T09:09:25.597Z,19968
2023-03-10T09:10:25.712Z,16015.359
2023-03-10T09:11:25.813Z,17295.36
2023-03-10T09:12:29.559Z,16967.68
2023-03-10T09:13:26.007Z,20142.08
2023-03-10T09:14:26.164Z,19445.76
2023-03-10T09:15:26.314Z,18483.2
2023-03-10T09:16:26.573Z,17408
2023-03-10T09:17:26.569Z,13322.239
2023-03-10T09:18:26.682Z,14469.12
2023-03-10T09:19:26.822Z,13824
2023-03-10T09:20:29.287Z,13363.199
2023-03-10T09:21:27.107Z,13803.52
2023-03-10T09:22:27.225Z,18411.52
2023-03-10T09:23:27.330Z,16087.04
2023-03-10T09:24:27.478Z,17694.72
2023-03-10T09:25:27.627Z,21237.76
2023-03-10T09:26:27.702Z,15646.72
2023-03-10T09:27:27.831Z,14827.52
2023-03-10T09:28:28.034Z,14981.12
2023-03-10T09:29:41.954Z,20674.56
2023-03-10T09:30:28.284Z,20213.76
2023-03-10T09:31:28.506Z,18104.32
2023-03-10T09:32:28.539Z,18104.32
2023-03-10T09:33:28.645Z,19404.8
2023-03-10T09:34:28.741Z,18268.16
2023-03-10T09:35:28.873Z,19271.68
2023-03-10T09:36:29.001Z,18298.88
2023-03-10T09:37:29.092Z,19517.44
2023-03-10T09:38:29.247Z,18759.68
2023-03-10T09:39:29.377Z,18851.84
2023-03-10T09:40:29.499Z,19138.56
2023-03-10T09:41:30.593Z,19087.36
2023-03-10T09:42:37.714Z,21606.4
2023-03-10T09:43:29.906Z,24453.12
2023-03-10T09:44:30.011Z,25763.84
2023-03-10T09:45:30.268Z,26214.4
2023-03-10T09:46:30.262Z,26562.56
2023-03-10T09:47:30.368Z,29245.44
2023-03-10T09:48:30.461Z,29061.12
2023-03-10T09:49:30.615Z,30781.44
2023-03-10T09:50:30.768Z,30617.6
2023-03-10T09:51:30.920Z,32440.32
2023-03-10T09:52:31.072Z,22548.48
2023-03-10T09:53:31.173Z,37314.56
2023-03-10T09:54:31.268Z,37580.8
2023-03-10T09:55:31.434Z,21360.64
2023-03-10T09:56:31.656Z,20111.36
2023-03-10T09:57:31.671Z,26071.04
2023-03-10T09:58:31.778Z,26972.16
2023-03-10T09:59:31.925Z,25886.72
2023-03-10T10:00:32.032Z,21585.92
2023-03-10T10:01:32.138Z,19445.76
2023-03-10T10:02:32.282Z,24371.2
2023-03-10T10:03:35.196Z,26009.6
2023-03-10T10:04:32.523Z,19415.04
2023-03-10T10:05:32.631Z,20367.36
2023-03-10T10:06:32.792Z,18810.88
2023-03-10T10:07:32.944Z,28262.4
2023-03-10T10:08:33.039Z,25518.08
2023-03-10T10:09:33.143Z,19200
2023-03-10T10:10:33.243Z,25067.52
2023-03-10T10:11:33.505Z,24555.52
2023-03-10T10:12:33.492Z,22896.64
2023-03-10T10:13:33.594Z,27463.68
2023-03-10T10:14:33.695Z,17715.2
2023-03-10T10:15:35.593Z,22241.28
2023-03-10T10:16:34.927Z,15267.84
2023-03-10T10:17:37.274Z,20090.88
2023-03-10T10:18:34.366Z,20469.76
2023-03-10T10:19:36.919Z,23470.08
2023-03-10T10:20:34.507Z,22261.76
2023-03-10T10:21:42.158Z,20285.44
2023-03-10T10:22:34.714Z,18718.72
2023-03-10T10:23:34.868Z,20889.6
2023-03-10T10:24:35.019Z,17971.2
2023-03-10T10:25:35.163Z,19609.6
2023-03-10T10:26:35.276Z,20101.12
2023-03-10T10:27:35.411Z,17838.08
2023-03-10T10:28:35.576Z,14407.68
2023-03-10T10:29:35.662Z,12820.479
2023-03-10T10:30:35.851Z,13649.92
2023-03-10T10:31:36.268Z,14346.239
2023-03-10T10:32:36.122Z,14704.64
2023-03-10T10:33:36.174Z,15595.52
2023-03-10T10:34:36.275Z,29573.12
2023-03-10T10:35:36.479Z,16138.239
2023-03-10T10:36:36.575Z,20623.36
2023-03-10T10:37:39.570Z,18769.92
2023-03-10T10:38:36.877Z,14837.76
2023-03-10T10:39:37.036Z,14161.92
2023-03-10T10:40:37.181Z,18237.44
2023-03-10T10:41:37.306Z,25620.48
2023-03-10T10:42:37.387Z,19210.24
2023-03-10T10:43:37.490Z,24023.04
2023-03-10T10:44:37.592Z,22200.32
2023-03-10T10:45:37.693Z,21585.92
2023-03-10T10:46:37.845Z,22568.96
2023-03-10T10:47:38.296Z,20264.96
2023-03-10T10:48:38.099Z,20951.04
2023-03-10T10:49:38.593Z,21483.52
2023-03-10T10:50:38.352Z,22118.4
2023-03-10T10:51:38.453Z,19333.12
2023-03-10T10:52:38.609Z,18882.56
2023-03-10T10:53:38.752Z,17971.2
2023-03-10T10:54:39.305Z,16752.64
2023-03-10T10:55:39.056Z,13854.72
2023-03-10T10:56:39.163Z,12892.16
2023-03-10T10:57:39.269Z,14970.88
2023-03-10T10:58:39.413Z,17827.84
2023-03-10T10:59:39.519Z,15431.68
2023-03-10T11:00:39.665Z,14428.16
2023-03-10T11:01:39.825Z,15964.159
2023-03-10T11:02:39.976Z,24678.4
2023-03-10T11:03:40.059Z,24330.24
2023-03-10T11:04:40.182Z,28467.2
2023-03-10T11:05:40.276Z,19578.88
2023-03-10T11:06:40.370Z,18012.16
2023-03-10T11:07:40.531Z,31682.56
2023-03-10T11:08:40.683Z,29532.16
2023-03-10T11:09:40.779Z,43704.32
2023-03-10T11:10:40.880Z,60743.68
2023-03-10T11:11:40.985Z,27627.52
2023-03-10T11:12:41.133Z,23183.36
2023-03-10T11:13:41.282Z,40386.56
2023-03-10T11:14:41.439Z,64880.64
2023-03-10T11:15:41.615Z,41390.08
2023-03-10T11:16:41.687Z,78725.12
2023-03-10T11:17:41.790Z,28528.64
2023-03-10T11:18:41.939Z,22712.32
2023-03-10T11:19:42.052Z,23777.28
2023-03-10T11:20:42.147Z,23367.68
2023-03-10T11:21:42.247Z,23367.68
2023-03-10T11:22:42.396Z,40878.08
2023-03-10T11:23:42.551Z,76963.84
2023-03-10T11:24:42.655Z,48332.8
2023-03-10T11:25:42.807Z,26521.6
2023-03-10T11:26:42.955Z,19906.56
2023-03-10T11:27:43.057Z,21135.36
2023-03-10T11:28:43.212Z,19363.84
2023-03-10T11:29:43.386Z,15831.04
2023-03-10T11:30:43.559Z,33976.32
2023-03-10T11:31:43.660Z,20152.32
2023-03-10T11:32:43.806Z,22896.64
2023-03-10T11:33:43.917Z,26726.4
2023-03-10T11:34:44.076Z,46940.16
2023-03-10T11:35:44.242Z,73646.08
2023-03-10T11:36:55.276Z,68444.16
2023-03-10T11:37:44.549Z,67706.88
2023-03-10T11:38:44.676Z,47104
2023-03-10T11:39:44.829Z,59637.76
2023-03-10T11:40:44.983Z,37130.24
2023-03-10T11:41:45.125Z,72171.52
2023-03-10T11:42:45.226Z,20183.04
2023-03-10T11:43:45.382Z,19066.88
2023-03-10T11:44:45.482Z,15749.12
2023-03-10T11:45:45.634Z,17633.28
2023-03-10T11:46:45.907Z,19066.88
2023-03-10T11:47:45.882Z,22077.44
2023-03-10T11:48:46.035Z,22036.48
2023-03-10T11:49:46.135Z,18882.56
2023-03-10T11:50:46.236Z,74956.8
2023-03-10T11:51:46.439Z,75120.64
2023-03-10T11:52:46.490Z,66109.44
2023-03-10T11:53:46.604Z,52920.32
2023-03-10T11:54:46.697Z,22507.52
2023-03-10T11:55:46.849Z,19097.6
2023-03-10T11:56:47.000Z,63815.68
2023-03-10T11:57:47.100Z,80445.44
2023-03-10T11:58:47.255Z,80977.92
2023-03-10T11:59:47.419Z,81674.24
2023-03-10T12:00:47.570Z,81428.48
2023-03-10T12:01:47.707Z,80322.56
2023-03-10T12:02:47.854Z,81674.24
2023-03-10T12:03:48.075Z,82984.96
2023-03-10T12:04:48.192Z,81264.64
2023-03-10T12:05:48.314Z,77004.8
2023-03-10T12:06:48.413Z,82452.48
2023-03-10T12:07:48.569Z,89948.16
2023-03-10T12:08:48.710Z,90030.08
2023-03-10T12:09:48.866Z,90685.44
2023-03-10T12:10:48.964Z,21667.84
2023-03-10T12:11:49.118Z,61562.88
2023-03-10T12:12:49.273Z,23982.08
2023-03-10T12:13:49.368Z,13987.84
2023-03-10T12:14:49.478Z,83066.88
2023-03-10T12:15:49.672Z,21217.28
2023-03-10T12:16:49.726Z,20008.96
2023-03-10T12:17:49.877Z,16138.239
2023-03-10T12:18:50.028Z,16046.08
2023-03-10T12:19:50.180Z,17141.76
2023-03-10T12:20:50.331Z,24944.64
2023-03-10T12:21:50.445Z,30720
2023-03-10T12:22:50.540Z,89456.64
2023-03-10T12:23:50.638Z,86589.44
2023-03-10T12:24:50.784Z,85606.4
2023-03-10T12:25:50.840Z,86917.12
2023-03-10T12:26:50.985Z,76144.64
2023-03-10T12:27:51.106Z,89620.48
2023-03-10T12:28:51.186Z,89784.32
2023-03-10T12:29:51.340Z,89456.64
2023-03-10T12:30:51.506Z,90357.76
2023-03-10T12:31:51.778Z,91586.55
2023-03-10T12:32:51.886Z,68730.88
2023-03-10T12:33:51.862Z,61931.52
2023-03-10T12:34:51.997Z,65576.96
2023-03-10T12:35:52.147Z,87490.55